| time (UTC) | temp C | wind direction | speed KPH | gust KPH | rain 1hr cm | rain 24hr cm | rain mn cm | humidity % | barometer mb |
| 20260503033826 | 22 | 332 | 0.0 | 0.0 | 0.00 | 0.23 | 0.23 | 96 | 1015.0 |
| 20260503032826 | 22 | 333 | 0.0 | 0.0 | 0.00 | 0.23 | 0.23 | 96 | 1014.9 |
| 20260503031823 | 22 | 333 | 0.0 | 0.0 | 0.00 | 0.23 | 0.23 | 96 | 1014.8 |
| 20260503030819 | 22 | 333 | 0.0 | 0.0 | 0.00 | 0.23 | 0.23 | 96 | 1014.8 |
| 20260503025814 | 22 | 333 | 0.0 | 0.0 | 0.00 | 0.23 | 0.23 | 96 | 1014.5 |
| 20260503024814 | 22 | 333 | 0.0 | 0.0 | 0.00 | 0.23 | 0.23 | 96 | 1014.6 |
| 20260503023831 | 22 | 333 | 0.0 | 0.0 | 0.00 | 0.23 | 0.23 | 96 | 1014.7 |
| 20260503022827 | 22 | 333 | 0.0 | 0.0 | 0.00 | 0.23 | 0.23 | 96 | 1014.4 |
| 20260503021847 | 22 | 333 | 0.0 | 0.0 | 0.00 | 0.23 | 0.23 | 96 | 1014.3 |
| 20260503020823 | 22 | 333 | 0.0 | 0.0 | 0.00 | 0.23 | 0.23 | 96 | 1014.5 |
| 20260503015817 | 22 | 333 | 0.0 | 0.0 | 0.00 | 0.23 | 0.23 | 96 | 1014.6 |
| 20260503014814 | 22 | 333 | 0.0 | 0.0 | 0.03 | 0.23 | 0.23 | 96 | 1014.4 |
| 20260503013814 | 22 | 333 | 0.0 | 0.0 | 0.03 | 0.23 | 0.23 | 95 | 1014.6 |
| 20260503012830 | 22 | 333 | 0.0 | 0.0 | 0.05 | 0.23 | 0.23 | 95 | 1014.6 |
| 20260503011846 | 22 | 333 | 0.0 | 0.0 | 0.20 | 0.23 | 0.23 | 95 | 1014.5 |
| 20260503010821 | 22 | 333 | 0.0 | 0.0 | 0.23 | 0.23 | 0.23 | 95 | 1014.4 |
| 20260503005822 | 22 | 333 | 0.0 | 0.0 | 0.23 | 0.23 | 0.23 | 94 | 1014.6 |
| 20260503004818 | 22 | 333 | 0.0 | 0.0 | 0.20 | 0.20 | 0.20 | 94 | 1014.2 |
| 20260503003815 | 22 | 333 | 0.0 | 0.0 | 0.20 | 0.20 | 0.20 | 94 | 1014.1 |
| 20260503002814 | 22 | 333 | 0.0 | 6.4 | 0.18 | 0.18 | 0.18 | 91 | 1014.3 |
| 20260503001832 | 25 | 49 | 3.2 | 14.5 | 0.03 | 0.03 | 0.03 | 82 | 1014.1 |
| 20260503000847 | 27 | 254 | 4.8 | 16.1 | 0.00 | 0.00 | 0.00 | 84 | 1013.7 |
| 20260502235822 | 27 | 270 | 0.0 | 4.8 | 0.00 | 0.00 | 0.00 | 87 | 1013.3 |
| 20260502234842 | 27 | 198 | 0.0 | 4.8 | 0.00 | 0.00 | 0.00 | 86 | 1013.3 |
| 20260502233816 | 27 | 168 | 0.0 | 1.6 | 0.00 | 0.00 | 0.00 | 84 | 1013.3 |
| 20260502232813 | 27 | 147 | 0.0 | 3.2 | 0.00 | 0.00 | 0.00 | 83 | 1013.1 |
| 20260502231829 | 27 | 186 | 1.6 | 6.4 | 0.00 | 0.00 | 0.00 | 81 | 1013.1 |
| 20260502230830 | 28 | 135 | 1.6 | 4.8 | 0.00 | 0.00 | 0.00 | 81 | 1013.0 |
| 20260502225846 | 28 | 252 | 0.0 | 11.3 | 0.00 | 0.00 | 0.00 | 80 | 1012.9 |
| 20260502224821 | 28 | 212 | 3.2 | 16.1 | 0.00 | 0.00 | 0.00 | 78 | 1012.6 |
| 20260502223819 | 28 | 203 | 1.6 | 8.0 | 0.00 | 0.00 | 0.00 | 77 | 1012.5 |
| 20260502222818 | 29 | 192 | 1.6 | 6.4 | 0.00 | 0.00 | 0.00 | 74 | 1012.3 |
| 20260502221835 | 29 | 103 | 1.6 | 11.3 | 0.00 | 0.00 | 0.00 | 72 | 1012.2 |
| 20260502220830 | 29 | 82 | 1.6 | 11.3 | 0.00 | 0.00 | 0.00 | 72 | 1012.2 |
| 20260502215825 | 29 | 201 | 1.6 | 14.5 | 0.00 | 0.00 | 0.00 | 70 | 1012.0 |
| 20260502214826 | 30 | 170 | 1.6 | 8.0 | 0.00 | 0.00 | 0.00 | 69 | 1012.0 |
| 20260502213843 | 30 | 173 | 3.2 | 14.5 | 0.00 | 0.00 | 0.00 | 67 | 1012.0 |
| 20260502212839 | 31 | 360 | 3.2 | 8.0 | 0.00 | 0.00 | 0.00 | 63 | 1011.8 |
| 20260502211818 | 32 | 226 | 1.6 | 8.0 | 0.00 | 0.00 | 0.00 | 62 | 1011.8 |
| 20260502210814 | 32 | 28 | 3.2 | 12.9 | 0.00 | 0.00 | 0.00 | 61 | 1011.7 |
| 20260502205829 | 32 | 219 | 1.6 | 8.0 | 0.00 | 0.00 | 0.00 | 61 | 1011.4 |
| 20260502204825 | 32 | 32 | 1.6 | 12.9 | 0.00 | 0.00 | 0.00 | 60 | 1011.5 |
| 20260502203826 | 32 | 224 | 3.2 | 9.7 | 0.00 | 0.00 | 0.00 | 58 | 1011.4 |
| 20260502202822 | 32 | 180 | 3.2 | 9.7 | 0.00 | 0.00 | 0.00 | 58 | 1011.7 |
| 20260502201819 | 33 | 202 | 1.6 | 8.0 | 0.00 | 0.00 | 0.00 | 60 | 1011.5 |
| 20260502200834 | 32 | 111 | 3.2 | 8.0 | 0.00 | 0.00 | 0.00 | 59 | 1011.4 |
| 20260502195813 | 32 | 138 | 3.2 | 12.9 | 0.00 | 0.00 | 0.00 | 59 | 1011.4 |
| 20260502194829 | 32 | 46 | 1.6 | 9.7 | 0.00 | 0.00 | 0.00 | 58 | 1011.7 |
| 20260502193826 | 32 | 215 | 4.8 | 12.9 | 0.00 | 0.00 | 0.00 | 56 | 1011.8 |
| 20260502192846 | 33 | 217 | 3.2 | 17.7 | 0.00 | 0.00 | 0.00 | 56 | 1011.9 |
| 20260502191821 | 33 | 269 | 1.6 | 16.1 | 0.00 | 0.00 | 0.00 | 57 | 1011.9 |
| 20260502190817 | 33 | 26 | 1.6 | 16.1 | 0.00 | 0.00 | 0.00 | 55 | 1012.0 |
| 20260502185813 | 33 | 165 | 3.2 | 14.5 | 0.00 | 0.00 | 0.00 | 56 | 1012.2 |
| 20260502184813 | 33 | 34 | 1.6 | 25.7 | 0.00 | 0.00 | 0.00 | 57 | 1012.3 |
| 20260502183831 | 33 | 228 | 3.2 | 14.5 | 0.00 | 0.00 | 0.00 | 57 | 1012.4 |
| 20260502182846 | 33 | 188 | 3.2 | 17.7 | 0.00 | 0.00 | 0.00 | 60 | 1012.4 |
| 20260502181820 | 33 | 213 | 3.2 | 12.9 | 0.00 | 0.00 | 0.00 | 60 | 1012.4 |
| 20260502180820 | 32 | 180 | 3.2 | 14.5 | 0.00 | 0.00 | 0.00 | 60 | 1012.5 |
| 20260502163815 | 32 | 206 | 3.2 | 9.7 | 0.00 | 0.00 | 0.00 | 68 | 1012.8 |
| 20260502162815 | 32 | 270 | 3.2 | 9.7 | 0.00 | 0.00 | 0.00 | 70 | 1012.8 |
| 20260502161830 | 31 | 217 | 1.6 | 12.9 | 0.00 | 0.00 | 0.00 | 72 | 1012.7 |
| 20260502160825 | 31 | 284 | 3.2 | 12.9 | 0.00 | 0.00 | 0.00 | 72 | 1012.8 |
| 20260502151814 | 29 | 120 | 4.8 | 14.5 | 0.00 | 0.00 | 0.00 | 81 | 1012.8 |
| 20260502150830 | 30 | 119 | 3.2 | 19.3 | 0.00 | 0.00 | 0.00 | 79 | 1012.8 |
| 20260502122825 | 21 | 198 | 0.0 | 0.0 | 0.00 | 0.00 | 0.00 | 95 | 1012.3 |
| 20260502121825 | 21 | 199 | 0.0 | 0.0 | 0.00 | 0.00 | 0.00 | 96 | 1012.2 |
| 20260502120819 | 20 | 199 | 0.0 | 0.0 | 0.00 | 0.00 | 0.00 | 96 | 1012.2 |
| 20260502115815 | 20 | 236 | 0.0 | 0.0 | 0.00 | 0.00 | 0.00 | 96 | 1012.2 |
| 20260502114815 | 20 | 236 | 0.0 | 0.0 | 0.00 | 0.00 | 0.00 | 96 | 1012.2 |
| 20260502113831 | 19 | 236 | 0.0 | 0.0 | 0.00 | 0.00 | 0.00 | 96 | 1012.1 |
| 20260502112827 | 19 | 236 | 0.0 | 0.0 | 0.00 | 0.00 | 0.00 | 95 | 1012.0 |
| 20260502111823 | 19 | 236 | 0.0 | 0.0 | 0.00 | 0.00 | 0.00 | 95 | 1012.1 |
| 20260502110824 | 19 | 236 | 0.0 | 0.0 | 0.00 | 0.00 | 0.00 | 95 | 1012.0 |
| 20260502105820 | 19 | 236 | 0.0 | 0.0 | 0.00 | 0.00 | 0.00 | 95 | 1012.1 |
| 20260502104816 | 19 | 236 | 0.0 | 0.0 | 0.00 | 0.00 | 0.00 | 95 | 1012.0 |
| 20260502103836 | 19 | 236 | 0.0 | 0.0 | 0.00 | 0.00 | 0.00 | 95 | 1012.1 |
| 20260502102831 | 19 | 230 | 0.0 | 0.0 | 0.00 | 0.00 | 0.00 | 95 | 1011.9 |
| 20260502101828 | 19 | 230 | 0.0 | 0.0 | 0.00 | 0.00 | 0.00 | 96 | 1012.0 |
| 20260502100823 | 19 | 230 | 0.0 | 0.0 | 0.00 | 0.00 | 0.00 | 96 | 1012.2 |
| 20260502090847 | 19 | 230 | 0.0 | 0.0 | 0.00 | 0.00 | 0.00 | 96 | 1012.4 |
| 20260502070822 | 18 | 230 | 0.0 | 0.0 | 0.00 | 0.00 | 0.00 | 95 | 1012.4 |
| 20260502065842 | 18 | 230 | 0.0 | 0.0 | 0.00 | 0.00 | 0.00 | 95 | 1012.4 |
| 20260502064818 | 18 | 230 | 0.0 | 0.0 | 0.00 | 0.00 | 0.00 | 95 | 1012.5 |
| 20260502063834 | 18 | 230 | 0.0 | 0.0 | 0.00 | 0.00 | 0.00 | 95 | 1012.6 |
| 20260502062831 | 18 | 230 | 0.0 | 0.0 | 0.00 | 0.00 | 0.00 | 95 | 1012.6 |
| 20260502061827 | 18 | 230 | 0.0 | 0.0 | 0.00 | 0.00 | 0.00 | 95 | 1012.7 |
| 20260502060824 | 18 | 230 | 0.0 | 0.0 | 0.00 | 0.00 | 0.00 | 94 | 1012.8 |
| 20260502055819 | 18 | 230 | 0.0 | 0.0 | 0.00 | 0.00 | 0.00 | 95 | 1012.9 |
| 20260502054819 | 18 | 230 | 0.0 | 0.0 | 0.00 | 0.00 | 0.00 | 94 | 1012.7 |
| 20260502053815 | 18 | 230 | 0.0 | 0.0 | 0.00 | 0.00 | 0.00 | 94 | 1012.7 |
| 20260502052831 | 18 | 230 | 0.0 | 0.0 | 0.00 | 0.00 | 0.00 | 94 | 1012.4 |
| 20260502051832 | 18 | 230 | 0.0 | 0.0 | 0.00 | 0.00 | 0.00 | 94 | 1012.6 |
| 20260502050828 | 18 | 230 | 0.0 | 0.0 | 0.00 | 0.00 | 0.00 | 94 | 1012.6 |
| 20260502045845 | 18 | 230 | 0.0 | 0.0 | 0.00 | 0.00 | 0.00 | 94 | 1012.5 |
| 20260502044821 | 18 | 230 | 0.0 | 0.0 | 0.00 | 0.00 | 0.00 | 94 | 1012.6 |
| 20260502043820 | 18 | 230 | 0.0 | 0.0 | 0.00 | 0.00 | 0.00 | 94 | 1012.5 |
| 20260502042816 | 18 | 230 | 0.0 | 0.0 | 0.00 | 0.00 | 0.00 | 94 | 1012.6 |
| 20260502041853 | 19 | 230 | 0.0 | 0.0 | 0.00 | 0.00 | 0.00 | 94 | 1012.6 |
| 20260502040829 | 19 | 230 | 0.0 | 0.0 | 0.00 | 0.00 | 0.00 | 94 | 1012.7 |
| 20260502035828 | 19 | 230 | 0.0 | 0.0 | 0.00 | 0.00 | 0.00 | 94 | 1012.8 |
| 20260502034824 | 20 | 230 | 0.0 | 0.0 | 0.00 | 0.00 | 0.00 | 95 | 1012.9 |